createdAt,value
2022-10-05T00:01:21.160Z,42.43
2022-10-05T00:04:21.987Z,42.61
2022-10-05T00:07:13.893Z,42.47
2022-10-05T00:10:00.435Z,42.35
2022-10-05T00:12:47.528Z,42.39
2022-10-05T00:15:33.495Z,42.34
2022-10-05T00:18:20.992Z,42.38
2022-10-05T00:21:27.096Z,42.57
2022-10-05T00:24:19.813Z,42.57
2022-10-05T00:27:19.095Z,42.63
2022-10-05T00:30:19.970Z,42.70
2022-10-05T00:33:05.945Z,42.60
2022-10-05T00:35:51.859Z,42.60
2022-10-05T00:38:37.987Z,42.73
2022-10-05T00:41:55.777Z,43.13
2022-10-05T00:44:56.586Z,43.05
2022-10-05T00:48:20.681Z,43.10
2022-10-05T00:51:28.021Z,43.18
2022-10-05T00:54:29.096Z,42.94
2022-10-05T00:57:24.112Z,43.03
2022-10-05T01:00:15.738Z,43.04
2022-10-05T01:03:28.015Z,43.50
2022-10-05T01:06:26.016Z,42.94
2022-10-05T01:09:18.800Z,43.09
2022-10-05T01:12:32.901Z,43.43
2022-10-05T01:15:33.661Z,43.62
2022-10-05T01:18:28.359Z,43.00
2022-10-05T01:21:21.485Z,43.21
2022-10-05T01:24:29.393Z,43.25
2022-10-05T01:27:41.937Z,43.73
2022-10-05T01:30:35.946Z,43.26
2022-10-05T01:33:25.425Z,43.27
2022-10-05T01:36:16.951Z,43.45
2022-10-05T01:39:20.590Z,43.93
2022-10-05T01:42:37.493Z,43.69
2022-10-05T01:45:51.009Z,44.24
2022-10-05T01:48:47.769Z,43.64
2022-10-05T01:51:47.703Z,43.82
2022-10-05T01:55:06.123Z,44.20
2022-10-05T01:57:56.043Z,43.71
2022-10-05T02:01:06.793Z,44.61
2022-10-05T02:04:01.056Z,43.90
2022-10-05T02:06:50.697Z,44.00
2022-10-05T02:09:52.006Z,44.23
2022-10-05T02:12:38.903Z,43.80
2022-10-05T02:15:35.927Z,43.97
2022-10-05T02:18:27.417Z,43.87
2022-10-05T02:21:13.706Z,44.05
2022-10-05T02:24:05.295Z,43.99
2022-10-05T02:26:52.664Z,44.44
2022-10-05T02:29:43.072Z,44.15
2022-10-05T02:32:35.442Z,44.30
2022-10-05T02:35:23.081Z,44.22
2022-10-05T02:38:13.211Z,44.47
2022-10-05T02:41:08.727Z,44.32
2022-10-05T02:44:14.227Z,44.27
2022-10-05T02:47:09.752Z,44.29
2022-10-05T02:50:28.198Z,44.75
2022-10-05T02:53:27.697Z,44.49
2022-10-05T02:56:18.978Z,44.35
2022-10-05T02:59:14.174Z,44.37
2022-10-05T03:02:25.053Z,44.42
2022-10-05T03:05:14.482Z,44.54
2022-10-05T03:08:20.066Z,44.55
2022-10-05T03:12:00.392Z,44.82
2022-10-05T03:15:18.866Z,45.03
2022-10-05T03:18:45.274Z,45.02
2022-10-05T03:22:06.780Z,45.01
2022-10-05T03:25:31.503Z,45.10
2022-10-05T03:28:32.894Z,44.88
2022-10-05T03:31:19.666Z,44.66
2022-10-05T03:34:15.914Z,44.86
2022-10-05T03:37:28.136Z,45.30
2022-10-05T03:40:28.650Z,45.08
2022-10-05T03:43:52.268Z,45.37
2022-10-05T03:46:56.894Z,45.88
2022-10-05T03:50:21.466Z,45.55
2022-10-05T03:53:30.215Z,45.45
2022-10-05T03:56:51.632Z,46.03
2022-10-05T04:00:01.645Z,45.55
2022-10-05T04:02:56.422Z,45.41
2022-10-05T04:05:50.722Z,45.34
2022-10-05T04:08:55.114Z,45.39
2022-10-05T04:11:58.453Z,45.64
2022-10-05T04:14:50.508Z,45.61
2022-10-05T04:17:43.171Z,45.65
2022-10-05T04:20:45.216Z,46.14
2022-10-05T04:23:35.435Z,45.55
2022-10-05T04:26:45.718Z,46.04
2022-10-05T04:29:34.999Z,45.74
2022-10-05T04:32:43.816Z,46.08
2022-10-05T04:35:44.653Z,46.04
2022-10-05T04:38:37.850Z,46.03
2022-10-05T04:41:29.969Z,45.89
2022-10-05T04:44:27.206Z,46.23
2022-10-05T04:47:36.430Z,46.37
2022-10-05T04:50:37.667Z,45.96
2022-10-05T04:53:56.835Z,46.25
2022-10-05T04:56:53.204Z,46.36
2022-10-05T05:00:11.548Z,46.18
2022-10-05T05:03:04.847Z,46.11
2022-10-05T05:06:17.432Z,46.10
2022-10-05T05:09:24.682Z,46.50
2022-10-05T05:12:15.859Z,46.31
2022-10-05T05:15:07.535Z,46.24
2022-10-05T05:18:05.592Z,46.61
2022-10-05T05:21:09.710Z,46.04
2022-10-05T05:24:20.993Z,46.30
2022-10-05T05:27:20.205Z,46.31
2022-10-05T05:30:22.840Z,47.02
2022-10-05T05:33:23.610Z,46.75
2022-10-05T05:36:23.719Z,46.87
2022-10-05T05:40:00.428Z,47.42
2022-10-05T05:42:59.819Z,47.04
2022-10-05T05:45:59.428Z,46.77
2022-10-05T05:48:46.821Z,47.05
2022-10-05T05:51:37.527Z,46.95
2022-10-05T05:54:39.619Z,46.91
2022-10-05T05:57:48.856Z,47.17
2022-10-05T06:00:44.646Z,46.95
2022-10-05T06:03:38.193Z,46.78
2022-10-05T06:06:25.716Z,47.94
2022-10-05T06:09:21.580Z,46.70
2022-10-05T06:12:23.206Z,47.03
2022-10-05T06:15:40.154Z,47.13
2022-10-05T06:18:27.537Z,46.78
2022-10-05T06:21:27.762Z,47.12
2022-10-05T06:24:26.659Z,46.72
2022-10-05T06:27:36.723Z,47.05
2022-10-05T06:30:23.561Z,47.00
2022-10-05T06:33:36.995Z,46.80
2022-10-05T06:36:48.907Z,47.43
2022-10-05T06:39:46.366Z,46.89
2022-10-05T06:42:54.024Z,46.91
2022-10-05T06:46:07.280Z,46.71
2022-10-05T06:49:19.971Z,47.07
2022-10-05T06:52:34.635Z,47.49
2022-10-05T06:55:36.324Z,47.22
2022-10-05T06:58:22.958Z,46.93
2022-10-05T07:01:23.981Z,47.06
2022-10-05T07:04:23.614Z,47.31
2022-10-05T07:07:41.616Z,46.85
2022-10-05T07:10:33.963Z,47.18
2022-10-05T07:13:27.972Z,48.26
2022-10-05T07:16:53.709Z,47.41
2022-10-05T07:19:42.569Z,46.92
2022-10-05T07:23:06.941Z,47.33
2022-10-05T07:26:01.263Z,47.32
2022-10-05T07:28:52.984Z,47.19
2022-10-05T07:32:08.648Z,47.19
2022-10-05T07:34:55.181Z,47.23
2022-10-05T07:37:58.032Z,47.24
2022-10-05T07:40:54.651Z,47.09
2022-10-05T07:44:05.027Z,47.23
2022-10-05T07:47:00.855Z,47.13
2022-10-05T07:49:56.184Z,47.18
2022-10-05T07:52:48.678Z,46.97
2022-10-05T07:55:42.540Z,47.23
2022-10-05T07:58:37.035Z,46.90
2022-10-05T08:01:29.718Z,47.04
2022-10-05T08:04:27.761Z,46.71
2022-10-05T08:07:16.943Z,46.93
2022-10-05T08:10:31.828Z,46.61
2022-10-05T08:13:47.350Z,47.31
2022-10-05T08:16:36.186Z,46.82
2022-10-05T08:19:40.317Z,47.05
2022-10-05T08:22:31.552Z,47.14
2022-10-05T08:25:55.839Z,47.06
2022-10-05T08:28:47.052Z,46.71
2022-10-05T08:31:34.156Z,46.67
2022-10-05T08:34:27.697Z,46.72
2022-10-05T08:37:22.771Z,46.62
2022-10-05T08:40:14.407Z,46.40
2022-10-05T08:43:24.861Z,46.69
2022-10-05T08:46:40.137Z,46.49
2022-10-05T08:49:35.492Z,46.25
2022-10-05T08:52:26.000Z,46.48
2022-10-05T08:55:17.626Z,46.18
2022-10-05T08:58:31.216Z,46.34
2022-10-05T09:01:45.267Z,46.21
2022-10-05T09:04:34.796Z,46.02
2022-10-05T09:07:36.898Z,45.94
2022-10-05T09:10:50.083Z,45.65
2022-10-05T09:13:38.909Z,45.61
2022-10-05T09:16:45.116Z,45.63
2022-10-05T09:19:53.853Z,45.97
2022-10-05T09:22:59.137Z,45.77
2022-10-05T09:26:08.923Z,45.58
2022-10-05T09:29:10.694Z,45.44
2022-10-05T09:32:16.675Z,45.10
2022-10-05T09:35:25.765Z,45.02
2022-10-05T09:38:17.662Z,44.97
2022-10-05T09:41:32.242Z,44.75
2022-10-05T09:44:41.538Z,44.72
2022-10-05T09:47:36.654Z,44.67
2022-10-05T09:50:44.448Z,44.64
2022-10-05T09:54:01.233Z,44.57
2022-10-05T09:56:56.183Z,44.36
2022-10-05T10:00:04.086Z,44.44
2022-10-05T10:03:13.409Z,44.18
2022-10-05T10:06:10.486Z,44.16
2022-10-05T10:08:58.017Z,44.09
2022-10-05T10:12:21.088Z,43.90
2022-10-05T10:15:25.997Z,43.68
2022-10-05T10:18:27.277Z,43.78
2022-10-05T10:21:45.652Z,43.45
2022-10-05T10:25:04.090Z,43.40
2022-10-05T10:28:02.077Z,43.49
2022-10-05T10:31:06.358Z,43.53
2022-10-05T10:33:58.662Z,43.25
2022-10-05T10:37:42.415Z,43.11
2022-10-05T10:40:34.998Z,43.15
2022-10-05T10:44:02.636Z,43.03
2022-10-05T10:47:20.028Z,42.69
2022-10-05T10:50:45.036Z,42.30
2022-10-05T10:54:03.566Z,42.32
2022-10-05T10:57:35.858Z,42.11
2022-10-05T11:00:35.280Z,41.93
2022-10-05T11:03:33.199Z,41.42
2022-10-05T11:06:43.705Z,40.89
2022-10-05T11:09:32.497Z,40.62
2022-10-05T11:12:55.573Z,40.28
2022-10-05T11:15:48.074Z,39.96
2022-10-05T11:18:56.533Z,39.65
2022-10-05T11:21:55.091Z,39.27
2022-10-05T11:25:03.141Z,39.09
2022-10-05T11:28:04.734Z,38.58
2022-10-05T11:30:51.744Z,38.16
2022-10-05T11:34:03.599Z,37.80
2022-10-05T11:37:08.813Z,37.08
2022-10-05T11:40:21.616Z,36.79
2022-10-05T11:43:30.682Z,36.72
2022-10-05T11:46:16.405Z,36.59
2022-10-05T11:49:21.508Z,35.84
2022-10-05T11:52:19.031Z,35.53
2022-10-05T11:55:25.156Z,35.48
2022-10-05T11:58:22.099Z,36.17
2022-10-05T12:01:23.007Z,36.32
2022-10-05T12:04:42.345Z,35.84
2022-10-05T12:07:29.504Z,35.75
2022-10-05T12:10:45.057Z,35.67
2022-10-05T12:13:39.396Z,35.84
2022-10-05T12:16:41.624Z,35.62
2022-10-05T12:19:41.324Z,35.17
2022-10-05T12:22:59.713Z,35.07
2022-10-05T12:26:02.464Z,34.40
2022-10-05T12:28:53.628Z,34.13
2022-10-05T12:31:55.352Z,33.54
2022-10-05T12:34:51.676Z,33.28
2022-10-05T12:38:04.083Z,32.66
2022-10-05T12:41:04.479Z,32.50
2022-10-05T12:43:56.472Z,32.49
2022-10-05T12:47:23.812Z,31.71
2022-10-05T12:50:21.304Z,31.88
2022-10-05T12:53:43.299Z,31.55
2022-10-05T12:56:32.321Z,31.38
2022-10-05T12:59:38.841Z,31.36
2022-10-05T13:02:43.241Z,30.86
2022-10-05T13:05:28.893Z,30.49
2022-10-05T13:08:39.062Z,29.68
2022-10-05T13:11:49.089Z,29.75
2022-10-05T13:15:00.598Z,29.56
2022-10-05T13:18:12.687Z,29.71
2022-10-05T13:21:13.153Z,29.28
2022-10-05T13:24:08.941Z,29.12
2022-10-05T13:27:01.061Z,28.69
2022-10-05T13:29:58.933Z,28.40
2022-10-05T13:32:53.534Z,28.55
2022-10-05T13:36:09.555Z,28.40
2022-10-05T13:39:20.307Z,28.52
2022-10-05T13:42:19.305Z,28.48
2022-10-05T13:45:30.554Z,27.63
2022-10-05T13:48:41.498Z,27.94
2022-10-05T13:52:03.460Z,28.15
2022-10-05T13:55:05.504Z,27.77
2022-10-05T13:57:57.577Z,27.73
2022-10-05T14:00:56.023Z,27.64
2022-10-05T14:04:21.255Z,27.26
2022-10-05T14:07:39.195Z,26.99
2022-10-05T14:10:40.535Z,27.15
2022-10-05T14:13:35.819Z,27.07
2022-10-05T14:16:26.316Z,26.93
2022-10-05T14:19:40.309Z,26.90
2022-10-05T14:22:27.213Z,27.01
2022-10-05T14:25:18.134Z,27.22
2022-10-05T14:28:37.705Z,26.66
2022-10-05T14:31:35.815Z,27.49
2022-10-05T14:34:35.012Z,27.50
2022-10-05T14:37:24.763Z,28.11
2022-10-05T14:40:35.297Z,27.40
2022-10-05T14:43:21.387Z,28.34
2022-10-05T14:46:16.905Z,28.30
2022-10-05T14:49:21.827Z,28.56
2022-10-05T14:52:32.660Z,28.44
2022-10-05T14:55:42.739Z,28.78
2022-10-05T14:59:16.621Z,28.89
2022-10-05T15:02:27.470Z,29.35
2022-10-05T15:05:26.790Z,29.72
2022-10-05T15:08:41.510Z,29.78
2022-10-05T15:11:40.501Z,29.89
2022-10-05T15:14:34.511Z,30.23
2022-10-05T15:17:27.662Z,30.25
2022-10-05T15:20:33.811Z,30.40
2022-10-05T15:23:42.873Z,30.47
2022-10-05T15:26:41.199Z,30.62
2022-10-05T15:30:05.202Z,30.72
2022-10-05T15:33:01.180Z,31.11
2022-10-05T15:36:06.543Z,30.98
2022-10-05T15:39:33.267Z,31.03
2022-10-05T15:42:25.786Z,31.41
2022-10-05T15:45:34.426Z,31.37
2022-10-05T15:48:49.386Z,31.83
2022-10-05T15:51:50.293Z,31.73
2022-10-05T15:54:58.355Z,31.82
2022-10-05T15:58:20.358Z,32.06
2022-10-05T16:01:11.870Z,31.94
2022-10-05T16:04:14.528Z,32.16
2022-10-05T16:07:20.817Z,32.16
2022-10-05T16:10:15.597Z,32.33
2022-10-05T16:13:07.354Z,32.42
2022-10-05T16:16:11.982Z,32.58
2022-10-05T16:18:58.615Z,33.07
2022-10-05T16:21:55.092Z,32.91
2022-10-05T16:25:27.476Z,33.28
2022-10-05T16:28:16.209Z,33.08
2022-10-05T16:31:06.791Z,33.25
2022-10-05T16:33:55.835Z,33.35
2022-10-05T16:37:05.012Z,33.43
2022-10-05T16:39:57.324Z,33.55
2022-10-05T16:42:52.616Z,33.80
2022-10-05T16:45:57.047Z,34.02
2022-10-05T16:48:48.747Z,33.77
2022-10-05T16:51:53.183Z,34.10
2022-10-05T16:54:47.500Z,34.19
2022-10-05T16:57:41.309Z,34.12
2022-10-05T17:00:47.128Z,34.43
2022-10-05T17:03:42.240Z,34.38
2022-10-05T17:06:39.105Z,34.51
2022-10-05T17:10:03.233Z,35.09
2022-10-05T17:13:07.949Z,35.27
2022-10-05T17:16:00.753Z,34.81
2022-10-05T17:19:10.450Z,35.26
2022-10-05T17:22:00.796Z,34.92
2022-10-05T17:24:55.118Z,34.98
2022-10-05T17:28:15.352Z,35.60
2022-10-05T17:31:13.846Z,35.35
2022-10-05T17:33:59.634Z,35.27
2022-10-05T17:36:57.740Z,35.66
2022-10-05T17:39:50.508Z,35.59
2022-10-05T17:42:39.708Z,35.76
2022-10-05T17:45:34.537Z,36.14
2022-10-05T17:48:55.543Z,36.65
2022-10-05T17:52:00.134Z,36.08
2022-10-05T17:55:08.625Z,35.93
2022-10-05T17:57:59.996Z,36.25
2022-10-05T18:01:07.772Z,36.86
2022-10-05T18:03:53.687Z,36.41
2022-10-05T18:06:52.755Z,36.88
2022-10-05T18:09:55.288Z,37.01
2022-10-05T18:12:46.009Z,36.68
2022-10-05T18:15:31.835Z,36.58
2022-10-05T18:18:32.989Z,37.06
2022-10-05T18:21:28.781Z,37.33
2022-10-05T18:24:18.547Z,37.02
2022-10-05T18:27:34.121Z,37.25
2022-10-05T18:30:24.880Z,37.25
2022-10-05T18:33:14.000Z,37.41
2022-10-05T18:36:27.833Z,38.01
2022-10-05T18:39:23.865Z,37.83
2022-10-05T18:42:25.327Z,37.63
2022-10-05T18:45:17.012Z,37.30
2022-10-05T18:48:32.410Z,37.90
2022-10-05T18:51:18.162Z,37.33
2022-10-05T18:54:25.246Z,38.28
2022-10-05T18:57:34.628Z,38.42
2022-10-05T19:00:22.729Z,37.91
2022-10-05T19:03:37.227Z,38.08
2022-10-05T19:06:58.608Z,38.52
2022-10-05T19:10:08.765Z,38.55
2022-10-05T19:13:10.977Z,38.34
2022-10-05T19:16:18.668Z,38.74
2022-10-05T19:19:30.728Z,38.61
2022-10-05T19:23:08.452Z,39.50
2022-10-05T19:26:08.493Z,38.84
2022-10-05T19:29:22.757Z,38.92
2022-10-05T19:32:16.630Z,39.02
2022-10-05T19:35:13.693Z,38.91
2022-10-05T19:38:25.734Z,38.85
2022-10-05T19:41:37.457Z,39.84
2022-10-05T19:44:35.368Z,39.06
2022-10-05T19:47:30.192Z,39.16
2022-10-05T19:50:37.757Z,39.85
2022-10-05T19:53:36.343Z,39.52
2022-10-05T19:56:23.370Z,39.03
2022-10-05T19:59:18.627Z,39.66
2022-10-05T20:02:04.772Z,39.56
2022-10-05T20:04:54.915Z,39.32
2022-10-05T20:07:41.373Z,39.49
2022-10-05T20:10:29.699Z,39.50
2022-10-05T20:13:22.787Z,39.84
2022-10-05T20:16:35.830Z,40.06
2022-10-05T20:19:51.439Z,39.83
2022-10-05T20:22:48.696Z,39.93
2022-10-05T20:25:37.314Z,39.96
2022-10-05T20:28:31.346Z,40.09
2022-10-05T20:31:20.232Z,39.92
2022-10-05T20:34:06.459Z,40.38
2022-10-05T20:36:52.588Z,40.31
2022-10-05T20:39:39.398Z,40.19
2022-10-05T20:42:26.216Z,40.37
2022-10-05T20:45:13.196Z,40.52
2022-10-05T20:47:59.181Z,40.41
2022-10-05T20:50:44.856Z,40.66
2022-10-05T20:53:31.025Z,40.77
2022-10-05T20:56:16.722Z,40.57
2022-10-05T20:59:02.553Z,40.50
2022-10-05T21:01:48.467Z,40.72
2022-10-05T21:04:41.696Z,40.74
2022-10-05T21:07:27.771Z,40.84
2022-10-05T21:10:14.317Z,40.89
2022-10-05T21:13:03.253Z,40.99
2022-10-05T21:15:49.021Z,40.98
2022-10-05T21:18:35.229Z,41.06
2022-10-05T21:21:22.570Z,41.12
2022-10-05T21:24:46.810Z,41.83
2022-10-05T21:27:37.195Z,41.41
2022-10-05T21:30:23.105Z,41.08
2022-10-05T21:33:08.769Z,41.47
2022-10-05T21:35:54.637Z,41.24
2022-10-05T21:38:55.510Z,41.74
2022-10-05T21:41:41.339Z,41.51
2022-10-05T21:44:27.040Z,41.36
2022-10-05T21:47:13.145Z,41.55
2022-10-05T21:50:00.433Z,41.62
2022-10-05T21:52:46.502Z,41.57
2022-10-05T21:55:33.738Z,41.97
2022-10-05T21:58:21.417Z,41.57
2022-10-05T22:01:39.417Z,42.73
2022-10-05T22:04:25.312Z,41.93
2022-10-05T22:07:40.724Z,41.93
2022-10-05T22:10:27.209Z,41.74
2022-10-05T22:18:17.651Z,42.28
2022-10-05T22:22:13.149Z,42.93
2022-10-05T22:24:58.958Z,42.19
2022-10-05T22:27:45.256Z,42.35
2022-10-05T22:30:31.616Z,42.28
2022-10-05T22:33:17.401Z,42.31
2022-10-05T22:36:03.877Z,42.34
2022-10-05T22:39:57.251Z,43.67
2022-10-05T22:42:43.219Z,42.58
2022-10-05T22:45:32.466Z,42.89
2022-10-05T22:48:18.820Z,42.91
2022-10-05T22:51:05.031Z,42.70
2022-10-05T22:53:50.750Z,42.71
2022-10-05T22:56:36.486Z,42.88
2022-10-05T22:59:22.805Z,42.79
2022-10-05T23:02:08.859Z,43.04
2022-10-05T23:04:55.001Z,42.96
2022-10-05T23:07:43.467Z,43.22
2022-10-05T23:10:29.586Z,43.20
2022-10-05T23:13:22.474Z,43.44
2022-10-05T23:16:11.065Z,42.94
2022-10-05T23:18:57.748Z,43.56
2022-10-05T23:21:43.581Z,43.42
2022-10-05T23:24:29.351Z,43.46
2022-10-05T23:27:15.117Z,43.62
2022-10-05T23:30:00.771Z,43.21
2022-10-05T23:32:46.334Z,43.17
2022-10-05T23:35:32.239Z,43.17
2022-10-05T23:38:18.248Z,43.44
2022-10-05T23:41:05.292Z,43.72
2022-10-05T23:43:51.280Z,43.60
2022-10-05T23:46:37.207Z,43.81
2022-10-05T23:49:23.171Z,43.52
2022-10-05T23:52:46.292Z,44.47
2022-10-05T23:55:33.990Z,43.85
2022-10-05T23:58:20.701Z,43.63
